• Join FlightAware (Why Join?)
  • Login
  • US Flag 
01:57AM EDT


 

Airport Tracker/Info


-or-


 

Live Flight TrackerFlight Track Log ✈ JBU608 ✈ 01-Jun-2012 ✈ KJFK - KPWM

Flight Track Log - Related Links

Times and Time Zones

All times are in EDT time to prevent confusion due to time zone crossing. See the JBU608 flight status page for this flight to view local times or setup timezone preferences in your user account.

Time Position Orientation Groundspeed Altitude Reporting Facility
EDT Latitude Longitude Course Direction KTS MPH feet Rate Location/Type
12:17AM 40.6833 -73.7167 47° Northeast 197 227 2,400  Level New York TRACON
12:22AM 40.9317 -73.3606 26° Northeast 314 361 14,700 2,340 Climbing Boston Center
12:23AM 41.0217 -73.3011 39° Northeast 326 375 16,600 1,140 Climbing Boston Center
12:24AM 41.0972 -73.2194 40° Northeast 357 411 17,000 180 Climbing Boston Center
12:25AM 41.1856 -73.1214 38° Northeast 388 447 17,000 -60 Level Boston Center
12:26AM 41.2778 -73.0256 40° Northeast 402 463 16,900  Descending Boston Center
12:27AM 41.3739 -72.9186 40° Northeast 402 463 17,000  Climbing Boston Center
12:28AM 41.4536 -72.8306 39° Northeast 407 468 17,000  Level Boston Center
12:29AM 41.5519 -72.7231 40° Northeast 407 468 17,000  Level Boston Center
12:30AM 41.6333 -72.6317 39° Northeast 407 468 17,000  Level Boston Center
12:31AM 41.7314 -72.5236 41° Northeast 407 468 17,000  Level Boston Center
12:32AM 41.8106 -72.4317 39° Northeast 412 474 17,000  Level Boston Center
12:33AM 41.9086 -72.3258 40° Northeast 412 474 17,000  Level Boston Center
12:34AM 41.9875 -72.2361 40° Northeast 412 474 17,000 -60 Level Boston Center
12:35AM 42.0853 -72.1267 40° Northeast 412 474 16,900 -60 Descending Boston Center
12:36AM 42.1642 -72.0367 40° Northeast 412 474 16,900  Level Boston Center
12:37AM 42.2597 -71.9294 40° Northeast 412 474 16,900  Level Boston Center
12:38AM 42.3406 -71.8361 39° Northeast 412 474 16,900  Level Boston Center
12:39AM 42.4397 -71.7256 40° Northeast 412 474 16,900  Level Boston Center
12:40AM 42.5183 -71.6344 40° Northeast 412 474 16,900  Level Boston Center
12:41AM 42.6156 -71.5231 39° Northeast 412 474 17,000  Climbing Boston Center
12:42AM 42.6961 -71.4344 41° Northeast 412 474 17,000  Level Boston Center
12:43AM 42.7908 -71.3225 40° Northeast 412 474 17,000  Level Boston Center
12:44AM 42.8692 -71.2333 28° Northeast 412 474 17,000  Level Boston Center
12:45AM 42.9808 -71.1517 29° Northeast 412 474 17,000 -660 Level Boston Center
12:46AM 43.0781 -71.0786 31° Northeast 401 461 15,700 -1,620 Descending Boston Center
12:47AM 43.1333 -71.0333 36° Northeast 386 444 14,500 -2,100 Descending Boston TRACON
12:48AM 43.2167 -70.9500 36° Northeast 374 430 12,500 -1,920 Descending Boston TRACON
12:49AM 43.3000 -70.8667 29° Northeast 353 406 10,700 -1,440 Descending Boston TRACON
12:49AM 43.3667 -70.8167 38° Northeast 317 365 9,800 -1,200 Descending Boston TRACON
12:50AM 43.3931 -70.7886 34° Northeast 321 369 9,000 -1,740 Descending Boston Center
12:51AM 43.4650 -70.7208 31° Northeast 301 346 7,200 -1,800 Descending Boston Center
12:52AM 43.5286 -70.6675 34° Northeast 289 333 5,500 -1,380 Descending Boston Center
12:53AM 43.5925 -70.6083 37° Northeast 269 310 4,500 -960 Descending Boston Center
12:54AM 43.6356 -70.5639 65° Northeast 231 266 3,600 -900 Descending Boston Center
12:55AM 43.6572 -70.5000 94° East 182 209 2,700 -900 Descending Boston Center
12:56AM 43.6542 -70.4400 94° East 168 193 1,800 -900 Descending Boston Center
12:57AM 43.6511 -70.3769 96° East 157 181 900 -840 Descending Boston Center
12:58AM 43.6481 -70.3339 100° East 136 157 200 1,500 Descending Boston Center
12:59AM 43.6408 -70.2769 100° East 136 157 4,000 3,780 Climbing Boston Center